Current Conditions
Clear
Conditions



Pressure
30.17 (inHG) - 1021.72 (mb)
Visibility

10.0 (mimiles) - 16.1 (km)
   Temperature
61  °F
16°C
59  °F
Dewpoint
94  %
 Humidity
   Wind Speed
0  mph
0  kts
0  km/h
0  m/s
   Wind Direction
Calm
Due North
   Airport Data
KBLV
Location Scott AFB / Midamerica 25 mi (40.23 km)
Metar :KBLV 241156Z AUTO 00000KT 10SM CLR 16/15 A3017 RMK AO2 SLP217 T01590148 10184 20156 53007 $
Sat 24th August 05:56 am
   Raw Metar Info
Raw METAR is the most common format in the world for the transmission of observational weather data. It is highly standardized through the International Civil Aviation Organization (ICAO), which allows it to be understood throughout most of the world.
   API Info
Data Provided by
https://www.checkwx.com/weather/KBLV
   © Info
CSS/SVG/PHP scripts were developed by weather34.com for use in the weather34 template © 2015-2019

Guide Info provided by Metar-Wikipedia